Time;durP1;ratioP1;P1;durP2;ratioP2;P2;SDS_P1;SDS_P2;PMS_P1;PMS_P2;Temp;Humidity;BMP_temperature;BMP_pressure;BME280_temperature;BME280_humidity;BME280_pressure;Samples;Min_cycle;Max_cycle;Signal;HPM_P1;HPM_P2
2023/05/13 00:00:54;;;;;;;4.85;1.30;;;29.60;78.10;;;;;;4938998;29;20316;-92
2023/05/13 00:03:27;;;;;;;3.03;1.05;;;29.70;77.60;;;;;;4938775;29;20629;-93
2023/05/13 00:06:00;;;;;;;3.70;1.50;;;29.60;76.00;;;;;;4939903;28;20608;-94
2023/05/13 00:08:32;;;;;;;1.80;1.13;;;29.50;73.20;;;;;;4933109;29;20307;-93
2023/05/13 00:11:04;;;;;;;2.28;1.30;;;29.60;76.50;;;;;;4925843;29;20212;-93
2023/05/13 00:13:36;;;;;;;3.25;1.30;;;29.50;78.60;;;;;;4938503;29;20638;-93
2023/05/13 00:16:07;;;;;;;1.42;1.20;;;29.40;80.20;;;;;;4931016;29;20212;-92
2023/05/13 00:18:41;;;;;;;2.33;1.40;;;29.40;81.10;;;;;;4938053;29;20370;-92
2023/05/13 00:21:12;;;;;;;3.15;1.02;;;29.30;81.20;;;;;;4929570;29;20314;-93
2023/05/13 00:23:44;;;;;;;1.35;1.17;;;29.40;82.50;;;;;;4934201;29;20322;-93
2023/05/13 00:26:15;;;;;;;3.83;1.40;;;29.40;83.00;;;;;;4937302;29;20208;-88
2023/05/13 00:28:46;;;;;;;2.63;1.20;;;29.50;81.50;;;;;;4937057;29;20845;-93
2023/05/13 00:31:17;;;;;;;6.07;1.92;;;29.50;81.70;;;;;;4933685;29;20243;-94
2023/05/13 00:33:51;;;;;;;2.17;1.23;;;29.60;81.70;;;;;;4936822;29;20204;-96
2023/05/13 00:36:22;;;;;;;1.33;1.00;;;29.40;79.60;;;;;;4925938;29;20216;-92
2023/05/13 00:38:53;;;;;;;1.90;1.30;;;29.40;80.50;;;;;;4936308;29;20223;-92
2023/05/13 00:41:25;;;;;;;2.88;1.23;;;29.30;80.60;;;;;;4920714;29;20560;-92
2023/05/13 00:43:56;;;;;;;3.78;1.10;;;29.40;79.40;;;;;;4929235;29;20215;-90
2023/05/13 00:46:31;;;;;;;4.32;1.10;;;29.30;80.00;;;;;;4927659;29;20272;-92
2023/05/13 00:49:06;;;;;;;4.30;1.20;;;29.20;80.90;;;;;;4937071;29;20264;-94
2023/05/13 00:51:40;;;;;;;4.75;1.08;;;29.20;80.30;;;;;;4933668;29;20586;-93
2023/05/13 00:54:11;;;;;;;2.00;1.20;;;29.10;78.10;;;;;;4932968;29;20237;-96
2023/05/13 00:56:43;;;;;;;2.77;1.20;;;29.00;80.90;;;;;;4937447;28;20535;-93
2023/05/13 00:59:15;;;;;;;2.75;0.90;;;29.00;78.80;;;;;;4937214;29;20605;-93
2023/05/13 01:01:54;;;;;;;4.82;1.25;;;29.10;74.60;;;;;;4941131;29;20259;-95
2023/05/13 01:04:39;;;;;;;2.25;0.95;;;29.20;76.20;;;;;;4936988;29;20213;-96
2023/05/13 01:07:17;;;;;;;3.03;1.27;;;29.80;75.00;;;;;;4936946;29;20239;-92
2023/05/13 01:10:01;;;;;;;2.25;1.23;;;30.40;74.60;;;;;;4933384;29;20286;-94
2023/05/13 01:12:37;;;;;;;4.43;1.20;;;30.90;73.90;;;;;;4590094;29;9999615;-94
2023/05/13 01:15:11;;;;;;;2.85;1.00;;;31.00;74.00;;;;;;4938378;29;20578;-93
2023/05/13 01:17:49;;;;;;;3.40;1.20;;;31.10;70.30;;;;;;4938313;29;20248;-96
2023/05/13 01:20:25;;;;;;;2.30;0.90;;;31.00;68.40;;;;;;4932890;29;20239;-95
2023/05/13 01:23:05;;;;;;;3.10;0.98;;;30.80;67.80;;;;;;4933107;29;20228;-96
2023/05/13 01:25:37;;;;;;;2.08;1.40;;;31.20;66.50;;;;;;4934784;29;20215;-95
2023/05/13 01:28:11;;;;;;;3.63;1.50;;;31.30;66.40;;;;;;4935442;29;20231;-96
2023/05/13 01:30:44;;;;;;;4.95;1.50;;;31.30;66.50;;;;;;4936571;29;20217;-96
2023/05/13 01:33:30;;;;;;;3.35;1.77;;;31.40;65.60;;;;;;4934813;29;20212;-96
2023/05/13 01:36:02;;;;;;;4.07;0.93;;;31.20;65.50;;;;;;4937881;29;20703;-96
2023/05/13 01:38:37;;;;;;;3.03;1.13;;;31.00;66.20;;;;;;5067805;23;20256;-96
2023/05/13 01:41:09;;;;;;;4.82;1.15;;;30.70;64.60;;;;;;4931992;29;20227;-95
2023/05/13 01:43:40;;;;;;;2.38;1.10;;;30.40;66.60;;;;;;4934159;29;20265;-91
2023/05/13 01:46:15;;;;;;;4.97;1.63;;;30.00;67.70;;;;;;4929542;29;20249;-94
2023/05/13 01:48:46;;;;;;;4.25;1.20;;;29.50;67.40;;;;;;4923978;29;20487;-94
2023/05/13 01:51:18;;;;;;;3.10;1.63;;;28.90;67.80;;;;;;4913771;29;20254;-93
2023/05/13 01:53:51;;;;;;;2.47;1.50;;;28.50;67.60;;;;;;4915240;29;20799;-94
2023/05/13 01:56:23;;;;;;;4.10;1.40;;;28.30;67.90;;;;;;4915690;29;20253;-96
2023/05/13 01:58:55;;;;;;;4.10;0.98;;;28.00;69.60;;;;;;4917931;29;20221;-96
2023/05/13 02:01:27;;;;;;;2.67;1.10;;;27.70;68.60;;;;;;4919700;29;20285;-91
2023/05/13 02:03:59;;;;;;;2.53;0.97;;;27.50;67.70;;;;;;4894348;29;20259;-90
2023/05/13 02:06:31;;;;;;;3.13;0.97;;;27.30;68.30;;;;;;4906797;29;20316;-92
2023/05/13 02:09:05;;;;;;;4.23;1.30;;;27.10;69.80;;;;;;4902242;29;20249;-91
2023/05/13 02:11:36;;;;;;;2.10;1.00;;;26.80;70.60;;;;;;4914848;29;20212;-92
2023/05/13 02:14:07;;;;;;;3.00;1.17;;;26.60;70.00;;;;;;4915912;29;20685;-92
2023/05/13 02:16:39;;;;;;;4.00;1.20;;;26.50;71.00;;;;;;4918043;29;20217;-92
2023/05/13 02:19:11;;;;;;;2.80;1.37;;;26.30;72.70;;;;;;4920142;29;20216;-92
2023/05/13 02:21:43;;;;;;;1.40;0.83;;;26.20;72.40;;;;;;4923731;29;20284;-90
2023/05/13 02:24:17;;;;;;;2.83;1.00;;;26.10;72.90;;;;;;4921141;29;20213;-90
2023/05/13 02:26:48;;;;;;;3.30;1.10;;;26.00;74.40;;;;;;4926409;29;20216;-90
2023/05/13 02:29:31;;;;;;;1.97;1.00;;;25.80;74.40;;;;;;4916857;29;20702;-94
2023/05/13 02:32:04;;;;;;;3.83;1.10;;;25.70;77.20;;;;;;4935571;29;20217;-92
2023/05/13 02:34:35;;;;;;;2.87;1.40;;;25.50;79.70;;;;;;4917952;29;20264;-90
2023/05/13 02:37:07;;;;;;;2.73;1.10;;;25.30;78.30;;;;;;4918981;29;20212;-90
2023/05/13 02:39:40;;;;;;;3.53;1.17;;;25.20;77.00;;;;;;4919280;29;20229;-90
2023/05/13 02:42:12;;;;;;;5.10;1.90;;;25.20;79.40;;;;;;4918592;29;20224;-92
2023/05/13 02:44:44;;;;;;;4.20;1.73;;;25.10;80.70;;;;;;4926431;29;20225;-92
2023/05/13 02:47:15;;;;;;;3.03;1.40;;;24.90;83.70;;;;;;4914565;29;20269;-92
2023/05/13 02:49:46;;;;;;;2.23;1.40;;;24.70;84.40;;;;;;4913018;29;20237;-89
2023/05/13 02:52:17;;;;;;;1.33;1.13;;;24.50;84.90;;;;;;4922281;29;20213;-89
2023/05/13 02:54:52;;;;;;;3.67;1.40;;;24.40;87.70;;;;;;4933807;29;20255;-96
2023/05/13 02:57:24;;;;;;;2.67;1.20;;;24.20;87.90;;;;;;4932581;29;20184;-94
2023/05/13 02:59:55;;;;;;;5.67;1.30;;;24.00;88.40;;;;;;4929468;29;20257;-95
2023/05/13 03:02:27;;;;;;;2.43;1.00;;;23.90;87.70;;;;;;4937820;29;20515;-95
2023/05/13 03:04:59;;;;;;;5.80;2.90;;;23.70;89.10;;;;;;4937021;29;20227;-95
2023/05/13 03:07:32;;;;;;;5.60;1.77;;;23.60;90.10;;;;;;4933138;29;20204;-96
2023/05/13 03:10:07;;;;;;;6.87;4.53;;;23.50;90.30;;;;;;4934499;29;20208;-94
2023/05/13 03:12:39;;;;;;;10.07;4.77;;;23.40;91.20;;;;;;4940856;29;20273;-96
2023/05/13 03:15:13;;;;;;;7.63;4.20;;;23.20;91.80;;;;;;4923883;29;20260;-94
2023/05/13 03:17:44;;;;;;;6.10;3.30;;;23.10;92.90;;;;;;4916025;29;20213;-95
2023/05/13 03:20:16;;;;;;;5.07;2.10;;;22.90;92.40;;;;;;4918674;29;20212;-93
2023/05/13 03:22:48;;;;;;;3.23;1.77;;;22.80;92.50;;;;;;4916284;29;20213;-94
2023/05/13 03:25:22;;;;;;;3.63;1.80;;;22.70;92.70;;;;;;4909741;29;20232;-95
2023/05/13 03:27:53;;;;;;;2.50;1.80;;;22.50;93.60;;;;;;4915702;29;20566;-93
2023/05/13 03:30:25;;;;;;;6.67;1.83;;;22.40;93.90;;;;;;4917890;29;20209;-92
2023/05/13 03:32:56;;;;;;;2.40;1.50;;;22.30;94.20;;;;;;4906141;29;20545;-94
2023/05/13 03:35:27;;;;;;;2.97;1.60;;;22.20;94.40;;;;;;4919268;29;20747;-94
2023/05/13 03:37:59;;;;;;;7.77;1.80;;;22.00;94.50;;;;;;4912972;29;20283;-95
2023/05/13 03:40:33;;;;;;;3.77;1.50;;;21.90;95.10;;;;;;4920063;29;20213;-94
2023/05/13 03:43:04;;;;;;;3.47;1.93;;;21.80;96.50;;;;;;4922376;29;20281;-94
2023/05/13 03:45:35;;;;;;;6.70;2.00;;;21.70;96.30;;;;;;4919391;29;20224;-94
2023/05/13 03:48:07;;;;;;;3.80;1.53;;;21.60;97.00;;;;;;4920312;29;20268;-94
2023/05/13 03:50:39;;;;;;;3.00;1.70;;;21.50;96.10;;;;;;4929253;29;20209;-91
2023/05/13 03:53:11;;;;;;;5.47;1.63;;;21.40;97.20;;;;;;4935225;29;20198;-91
2023/05/13 03:55:46;;;;;;;5.23;1.83;;;21.30;98.20;;;;;;4936278;29;20194;-92
2023/05/13 03:58:21;;;;;;;3.23;1.70;;;21.30;98.60;;;;;;5067384;23;20257;-96
2023/05/13 04:00:53;;;;;;;5.23;1.80;;;21.20;99.30;;;;;;5111502;23;20244;-92
2023/05/13 04:03:25;;;;;;;5.87;1.83;;;21.10;99.90;;;;;;4918942;29;20217;-92
2023/05/13 04:05:57;;;;;;;4.70;1.67;;;20.90;99.90;;;;;;4938549;29;20295;-94
2023/05/13 04:08:28;;;;;;;5.47;1.87;;;20.80;99.90;;;;;;4934152;29;20232;-96
2023/05/13 04:11:02;;;;;;;3.60;1.90;;;20.70;99.90;;;;;;4938232;29;20208;-94
2023/05/13 04:13:35;;;;;;;4.50;1.70;;;20.60;99.90;;;;;;4932981;29;20284;-93
2023/05/13 04:16:06;;;;;;;4.07;1.90;;;20.60;99.90;;;;;;4937427;29;20569;-94
2023/05/13 04:18:38;;;;;;;3.53;1.93;;;20.50;99.90;;;;;;4937351;29;20216;-93
2023/05/13 04:21:10;;;;;;;2.40;1.57;;;20.40;99.90;;;;;;4924804;29;20219;-93
2023/05/13 04:23:41;;;;;;;2.67;1.70;;;20.40;99.90;;;;;;4920415;29;20213;-92
2023/05/13 04:26:15;;;;;;;3.30;1.70;;;20.40;99.90;;;;;;4927577;29;20244;-93
2023/05/13 04:28:47;;;;;;;4.53;1.43;;;20.30;99.90;;;;;;4937212;29;20231;-94
2023/05/13 04:31:20;;;;;;;2.80;1.73;;;20.20;99.90;;;;;;4938539;29;20569;-94
2023/05/13 04:33:51;;;;;;;3.30;1.87;;;20.20;99.90;;;;;;4934294;29;20681;-93
2023/05/13 04:36:22;;;;;;;8.70;1.80;;;20.20;99.90;;;;;;4938617;29;20212;-94
2023/05/13 04:38:54;;;;;;;3.10;1.63;;;20.00;99.90;;;;;;4936484;29;20208;-94
2023/05/13 04:41:28;;;;;;;4.73;2.03;;;20.00;99.90;;;;;;4924548;29;20209;-93
2023/05/13 04:44:00;;;;;;;2.63;1.90;;;20.00;99.90;;;;;;4923062;29;20264;-93
2023/05/13 04:46:32;;;;;;;4.57;2.20;;;19.90;99.90;;;;;;4931833;29;20212;-95
2023/05/13 04:49:04;;;;;;;6.07;2.20;;;19.70;99.90;;;;;;4937314;29;20232;-95
2023/05/13 04:51:36;;;;;;;2.87;2.13;;;19.60;99.90;;;;;;4938428;29;20231;-94
2023/05/13 04:54:08;;;;;;;3.40;2.13;;;19.60;99.90;;;;;;4938331;29;20204;-94
2023/05/13 04:56:42;;;;;;;3.63;2.13;;;19.50;99.90;;;;;;4938537;29;20606;-93
2023/05/13 04:59:14;;;;;;;3.03;2.40;;;19.40;99.90;;;;;;4940399;29;20208;-94
2023/05/13 05:01:45;;;;;;;6.93;2.57;;;19.30;99.90;;;;;;4937232;29;20212;-93
2023/05/13 05:04:17;;;;;;;4.30;2.10;;;19.20;99.90;;;;;;4937551;29;20204;-94
2023/05/13 05:06:49;;;;;;;2.60;2.23;;;19.10;99.90;;;;;;4953417;28;20224;-96
2023/05/13 05:09:23;;;;;;;4.33;2.63;;;19.00;99.90;;;;;;4952929;29;20220;-96
2023/05/13 05:11:58;;;;;;;3.27;2.00;;;18.90;99.90;;;;;;4930708;29;20212;-93
2023/05/13 05:14:30;;;;;;;3.77;2.20;;;18.80;99.90;;;;;;4937988;29;20208;-94
2023/05/13 05:17:02;;;;;;;3.23;2.03;;;18.70;99.90;;;;;;4936241;29;20212;-95
2023/05/13 05:19:34;;;;;;;4.57;2.20;;;18.60;99.90;;;;;;4936196;29;20220;-95
2023/05/13 05:22:07;;;;;;;5.23;2.20;;;18.60;99.90;;;;;;4937076;29;20212;-94
2023/05/13 05:24:39;;;;;;;4.87;1.97;;;18.50;99.90;;;;;;4936398;29;20570;-96
2023/05/13 05:27:13;;;;;;;4.30;1.80;;;18.50;99.90;;;;;;4937112;28;20212;-96
2023/05/13 05:29:45;;;;;;;3.93;1.77;;;18.50;99.90;;;;;;4936117;29;20251;-96
2023/05/13 05:32:16;;;;;;;6.33;1.80;;;18.50;99.90;;;;;;4926971;29;20721;-95
2023/05/13 05:34:48;;;;;;;6.67;1.90;;;18.50;99.90;;;;;;4943123;29;20196;-94
2023/05/13 05:37:20;;;;;;;5.83;2.13;;;18.40;99.90;;;;;;4950424;29;20290;-94
2023/05/13 05:39:52;;;;;;;3.70;1.67;;;18.40;99.90;;;;;;4940392;29;20201;-95
2023/05/13 05:42:26;;;;;;;4.13;1.43;;;18.40;99.90;;;;;;4950548;29;20240;-95
2023/05/13 05:44:57;;;;;;;5.17;2.00;;;18.30;99.90;;;;;;4949562;29;20243;-95
2023/05/13 05:47:29;;;;;;;6.73;2.20;;;18.30;99.90;;;;;;4945723;29;20276;-95
2023/05/13 05:50:01;;;;;;;2.83;2.00;;;18.20;99.90;;;;;;4952476;29;20248;-93
2023/05/13 05:52:33;;;;;;;5.37;2.17;;;18.20;99.90;;;;;;4948917;29;20291;-95
2023/05/13 05:55:06;;;;;;;4.70;2.03;;;18.10;99.90;;;;;;4943492;29;20219;-93
2023/05/13 05:57:39;;;;;;;3.07;2.10;;;18.00;99.90;;;;;;4930298;29;20209;-93
2023/05/13 06:00:11;;;;;;;5.60;1.77;;;18.00;99.90;;;;;;4924281;29;20288;-95
2023/05/13 06:02:43;;;;;;;2.50;1.73;;;17.90;99.90;;;;;;4930696;29;20217;-94
2023/05/13 06:05:15;;;;;;;3.23;1.80;;;17.90;99.90;;;;;;4954148;29;20208;-96
2023/05/13 06:07:46;;;;;;;4.70;1.70;;;17.80;99.90;;;;;;4959103;29;20241;-95
2023/05/13 06:10:19;;;;;;;3.17;1.60;;;17.80;99.90;;;;;;4950255;29;20290;-95
2023/05/13 06:12:53;;;;;;;2.57;1.70;;;17.70;99.90;;;;;;4945527;29;20273;-95
2023/05/13 06:15:25;;;;;;;4.00;1.83;;;17.70;99.90;;;;;;4943665;28;20306;-95
2023/05/13 06:17:56;;;;;;;3.50;2.00;;;17.60;99.90;;;;;;4923272;29;20212;-94
2023/05/13 06:20:28;;;;;;;4.40;1.60;;;17.60;99.90;;;;;;4924228;29;20229;-95
2023/05/13 06:22:59;;;;;;;3.03;1.97;;;17.60;99.90;;;;;;4924564;29;20256;-95
2023/05/13 06:25:31;;;;;;;3.63;1.70;;;17.60;99.90;;;;;;4938406;29;20212;-95
2023/05/13 06:28:07;;;;;;;4.67;1.67;;;17.50;99.90;;;;;;4941002;29;20677;-91
2023/05/13 06:30:39;;;;;;;3.33;2.00;;;17.50;99.90;;;;;;4933114;29;20294;-95
2023/05/13 06:33:11;;;;;;;4.90;2.30;;;17.50;99.90;;;;;;4923545;29;20265;-95
2023/05/13 06:35:46;;;;;;;5.07;1.83;;;17.50;99.90;;;;;;4924552;29;20307;-94
2023/05/13 06:38:19;;;;;;;5.23;2.17;;;17.50;99.90;;;;;;4941852;29;20211;-95
2023/05/13 06:40:51;;;;;;;2.33;1.60;;;17.50;99.90;;;;;;4941864;29;20219;-96
2023/05/13 06:43:25;;;;;;;2.17;1.40;;;17.50;99.90;;;;;;4942962;29;20259;-94
2023/05/13 06:45:56;;;;;;;4.83;1.70;;;17.60;99.90;;;;;;4934666;28;20343;-94
2023/05/13 06:48:28;;;;;;;6.43;1.97;;;17.70;99.90;;;;;;4921901;29;20216;-96
2023/05/13 06:51:00;;;;;;;3.80;1.60;;;17.80;99.90;;;;;;4934099;29;20244;-95
2023/05/13 06:53:32;;;;;;;4.07;1.90;;;17.70;99.90;;;;;;4942145;29;20212;-94
2023/05/13 06:56:04;;;;;;;2.47;1.77;;;17.60;99.90;;;;;;4942231;29;20212;-95
2023/05/13 06:58:38;;;;;;;4.90;1.90;;;17.50;99.90;;;;;;4927944;28;20231;-94
2023/05/13 07:01:10;;;;;;;2.50;1.70;;;17.40;99.90;;;;;;4927351;29;20284;-95
2023/05/13 07:03:41;;;;;;;3.87;1.77;;;17.40;99.90;;;;;;4939627;29;20216;-95
2023/05/13 07:06:13;;;;;;;3.17;1.80;;;17.40;99.90;;;;;;4936291;29;20223;-93
2023/05/13 07:08:45;;;;;;;5.50;2.10;;;17.30;99.90;;;;;;4931691;29;20254;-94
2023/05/13 07:11:17;;;;;;;2.57;1.97;;;17.30;99.90;;;;;;4938357;29;20232;-94
2023/05/13 07:13:51;;;;;;;2.67;1.77;;;17.20;99.90;;;;;;4939289;29;20208;-93
2023/05/13 07:16:23;;;;;;;3.40;2.00;;;17.20;99.90;;;;;;4938921;29;20271;-93
2023/05/13 07:18:54;;;;;;;5.57;1.73;;;17.10;99.90;;;;;;4939453;29;20228;-94
2023/05/13 07:21:26;;;;;;;3.67;1.90;;;17.10;99.90;;;;;;4939493;29;20217;-95
2023/05/13 07:23:57;;;;;;;2.97;2.10;;;17.00;99.90;;;;;;4938976;29;20260;-94
2023/05/13 07:26:28;;;;;;;3.73;1.90;;;17.00;99.90;;;;;;4939721;29;20212;-93
2023/05/13 07:29:03;;;;;;;3.73;1.87;;;17.00;99.90;;;;;;4938167;29;20240;-96
2023/05/13 07:31:35;;;;;;;4.37;1.80;;;17.00;99.90;;;;;;4932164;29;20244;-95
2023/05/13 07:34:06;;;;;;;4.40;2.03;;;16.90;99.90;;;;;;4932536;29;20590;-95
2023/05/13 07:36:38;;;;;;;5.40;1.90;;;16.90;99.90;;;;;;4938568;29;20211;-95
2023/05/13 07:39:10;;;;;;;3.63;1.70;;;16.90;99.90;;;;;;4937684;29;20220;-95
2023/05/13 07:41:42;;;;;;;4.63;1.77;;;16.90;99.90;;;;;;4938071;29;20252;-94
2023/05/13 07:44:16;;;;;;;2.07;1.60;;;16.90;99.90;;;;;;4938671;28;20213;-96
2023/05/13 07:46:50;;;;;;;4.50;2.10;;;16.80;99.90;;;;;;4938511;29;20207;-96
2023/05/13 07:49:22;;;;;;;1.83;1.50;;;16.80;99.90;;;;;;4939339;29;20215;-95
2023/05/13 07:51:54;;;;;;;2.73;1.77;;;16.90;99.90;;;;;;4939674;29;20236;-93
2023/05/13 07:54:25;;;;;;;4.13;1.67;;;16.80;99.90;;;;;;4939676;29;20223;-94
2023/05/13 07:56:57;;;;;;;2.03;1.70;;;16.80;99.90;;;;;;4939698;29;20231;-95
2023/05/13 07:59:32;;;;;;;2.93;1.90;;;16.70;99.90;;;;;;4938500;29;20257;-95
2023/05/13 08:02:05;;;;;;;4.20;1.80;;;16.60;99.90;;;;;;4938907;29;20729;-96
2023/05/13 08:04:36;;;;;;;3.13;1.53;;;16.60;99.90;;;;;;4932344;29;20216;-95
2023/05/13 08:07:08;;;;;;;3.10;1.80;;;16.60;99.90;;;;;;4939344;29;20212;-96
2023/05/13 08:09:39;;;;;;;4.10;1.90;;;16.50;99.90;;;;;;4935792;28;20224;-95
2023/05/13 08:12:11;;;;;;;4.07;1.63;;;16.50;99.90;;;;;;4920110;29;20248;-95
2023/05/13 08:14:45;;;;;;;4.03;1.50;;;16.40;99.90;;;;;;4939950;29;20192;-93
2023/05/13 08:17:18;;;;;;;2.67;1.90;;;16.40;99.90;;;;;;4959049;29;20736;-95
2023/05/13 08:19:50;;;;;;;4.83;1.67;;;16.30;99.90;;;;;;4957196;29;20208;-94
2023/05/13 08:22:21;;;;;;;2.53;1.70;;;16.30;99.90;;;;;;4949942;28;20216;-94
2023/05/13 08:24:53;;;;;;;4.87;1.90;;;16.20;99.90;;;;;;4946100;29;20601;-94
2023/05/13 08:27:25;;;;;;;1.73;1.40;;;16.10;99.90;;;;;;4938756;29;20205;-94
2023/05/13 08:29:59;;;;;;;5.13;1.90;;;16.10;99.90;;;;;;4934095;29;20217;-95
2023/05/13 08:32:30;;;;;;;3.03;2.00;;;16.00;99.90;;;;;;4918817;29;20267;-94
2023/05/13 08:35:01;;;;;;;2.33;1.57;;;16.00;99.90;;;;;;4922567;29;20730;-95
2023/05/13 08:37:33;;;;;;;4.73;1.63;;;15.90;99.90;;;;;;4938245;28;20212;-95
2023/05/13 08:40:06;;;;;;;6.90;2.00;;;15.90;99.90;;;;;;4936233;29;20208;-95
2023/05/13 08:42:40;;;;;;;2.87;1.90;;;15.90;99.90;;;;;;4919227;29;20208;-95
2023/05/13 08:45:16;;;;;;;2.43;1.60;;;15.90;99.90;;;;;;4918916;29;20204;-96
2023/05/13 08:47:53;;;;;;;3.57;1.60;;;15.80;99.90;;;;;;4932213;29;20298;-96
2023/05/13 08:50:26;;;;;;;4.73;1.90;;;15.80;99.90;;;;;;4937549;29;20223;-95
2023/05/13 08:53:00;;;;;;;3.87;1.70;;;15.70;99.90;;;;;;4938051;29;20232;-96
2023/05/13 08:55:32;;;;;;;5.67;1.97;;;15.70;99.90;;;;;;4936913;29;20208;-96
2023/05/13 08:58:04;;;;;;;4.00;1.93;;;15.70;99.90;;;;;;4937108;29;20240;-95
2023/05/13 09:00:39;;;;;;;2.07;1.83;;;15.60;99.90;;;;;;4938144;29;20681;-96
2023/05/13 09:03:10;;;;;;;3.67;2.13;;;15.60;99.90;;;;;;4940821;29;20200;-96
2023/05/13 09:05:43;;;;;;;2.70;2.10;;;15.50;99.90;;;;;;4930370;29;20605;-94
2023/05/13 09:08:14;;;;;;;4.50;2.03;;;15.40;99.90;;;;;;4936992;29;20258;-94
2023/05/13 09:10:47;;;;;;;3.03;2.20;;;15.40;99.90;;;;;;4936846;29;20204;-95
2023/05/13 09:13:19;;;;;;;2.73;2.10;;;15.40;99.90;;;;;;4937680;29;20204;-96
2023/05/13 09:15:52;;;;;;;3.87;2.23;;;15.30;99.90;;;;;;4936676;29;20307;-94
2023/05/13 09:18:32;;;;;;;5.77;2.20;;;15.30;99.90;;;;;;4937040;29;20209;-94
2023/05/13 09:21:25;;;;;;;4.60;2.50;;;15.30;99.90;;;;;;4937340;29;20212;-94
2023/05/13 09:24:17;;;;;;;2.27;1.77;;;15.30;99.90;;;;;;4918335;29;20216;-94
2023/05/13 09:26:50;;;;;;;5.33;2.30;;;15.20;99.90;;;;;;4917931;29;20209;-94
2023/05/13 09:29:23;;;;;;;3.07;2.03;;;15.20;99.90;;;;;;4917193;29;20252;-96
2023/05/13 09:31:59;;;;;;;3.87;2.73;;;15.10;99.90;;;;;;4933279;29;20294;-95
2023/05/13 09:34:32;;;;;;;2.83;1.83;;;15.10;99.90;;;;;;4932002;29;20215;-95
2023/05/13 09:37:06;;;;;;;3.13;2.27;;;15.10;99.90;;;;;;4917471;29;20615;-93
2023/05/13 09:39:41;;;;;;;2.23;2.03;;;14.90;99.90;;;;;;4917261;29;20630;-94
2023/05/13 09:42:17;;;;;;;3.27;2.00;;;14.90;99.90;;;;;;4917806;29;20216;-96
2023/05/13 09:44:49;;;;;;;6.10;2.20;;;14.80;99.90;;;;;;4926885;29;20214;-94
2023/05/13 09:47:26;;;;;;;3.33;2.17;;;14.80;99.90;;;;;;4937763;29;20260;-95
2023/05/13 09:50:01;;;;;;;4.43;2.13;;;14.70;99.90;;;;;;4937149;29;20220;-94
2023/05/13 09:52:33;;;;;;;4.70;2.00;;;14.60;99.90;;;;;;4936769;29;20286;-96
2023/05/13 09:55:05;;;;;;;2.30;2.10;;;14.60;99.90;;;;;;4936839;29;20615;-95
2023/05/13 09:57:37;;;;;;;2.70;1.90;;;14.50;99.90;;;;;;4936796;29;20272;-96
2023/05/13 10:00:10;;;;;;;3.13;2.10;;;14.60;99.90;;;;;;4944636;29;20199;-96
2023/05/13 10:03:04;;;;;;;3.43;2.10;;;14.50;99.90;;;;;;4957913;29;20220;-94
2023/05/13 10:05:36;;;;;;;2.57;2.30;;;14.50;99.90;;;;;;4957698;28;20188;-96
2023/05/13 10:08:11;;;;;;;3.57;2.40;;;14.40;99.90;;;;;;4957327;29;20222;-96
2023/05/13 10:10:44;;;;;;;4.07;2.40;;;14.40;99.90;;;;;;4958139;29;20216;-96
2023/05/13 10:13:18;;;;;;;3.90;2.17;;;14.30;99.90;;;;;;4942967;29;20240;-96
2023/05/13 10:15:52;;;;;;;5.23;2.20;;;14.30;99.90;;;;;;4937240;29;20231;-96
2023/05/13 10:18:27;;;;;;;3.03;2.30;;;14.30;99.90;;;;;;4937616;29;20224;-96
2023/05/13 10:20:59;;;;;;;3.33;2.40;;;14.30;99.90;;;;;;4937980;29;20240;-96
2023/05/13 10:23:31;;;;;;;4.40;2.40;;;14.30;99.90;;;;;;4929971;28;20213;-95
2023/05/13 10:26:05;;;;;;;4.13;2.23;;;14.30;99.90;;;;;;4924959;29;20221;-94
2023/05/13 10:28:37;;;;;;;4.93;2.50;;;14.30;99.90;;;;;;4939376;29;20269;-94
2023/05/13 10:31:09;;;;;;;5.43;2.30;;;14.20;99.90;;;;;;4953152;29;20199;-95
2023/05/13 10:33:43;;;;;;;3.20;2.60;;;14.20;99.90;;;;;;4946170;29;20228;-94
2023/05/13 10:36:32;;;;;;;3.50;2.27;;;14.10;99.90;;;;;;4944345;29;20282;-95
2023/05/13 10:39:30;;;;;;;4.40;2.47;;;14.10;99.90;;;;;;4941394;29;20276;-95
2023/05/13 10:42:39;;;;;;;3.73;2.40;;;14.10;99.90;;;;;;4937075;29;20212;-95
2023/05/13 10:45:11;;;;;;;3.73;2.37;;;14.00;99.90;;;;;;4942329;29;20275;-96
2023/05/13 10:47:43;;;;;;;5.67;1.93;;;14.10;99.90;;;;;;4941061;29;20201;-94
2023/05/13 10:50:32;;;;;;;3.20;1.97;;;14.00;99.90;;;;;;4953220;28;20219;-94
2023/05/13 10:53:08;;;;;;;2.43;2.17;;;14.00;99.90;;;;;;4960267;29;20240;-94
2023/05/13 10:55:46;;;;;;;2.93;2.40;;;14.00;99.90;;;;;;4961211;29;20192;-95
2023/05/13 10:58:21;;;;;;;4.37;2.37;;;13.90;99.90;;;;;;4960824;29;20207;-96
2023/05/13 11:00:53;;;;;;;2.87;2.07;;;13.90;99.90;;;;;;4958910;29;20213;-95
2023/05/13 11:03:31;;;;;;;6.53;2.30;;;13.90;99.90;;;;;;4961695;28;20248;-94
2023/05/13 11:06:20;;;;;;;3.17;2.00;;;13.80;99.90;;;;;;4960869;29;20216;-95
2023/05/13 11:08:53;;;;;;;4.83;2.00;;;13.80;99.90;;;;;;4954844;29;20204;-95
2023/05/13 11:11:28;;;;;;;2.93;1.90;;;13.70;99.90;;;;;;4952962;29;20228;-95
2023/05/13 11:14:09;;;;;;;4.57;2.37;;;13.70;99.90;;;;;;4930026;29;20229;-94
2023/05/13 11:16:46;;;;;;;3.33;2.00;;;13.70;99.90;;;;;;4948812;29;20217;-95
2023/05/13 11:19:30;;;;;;;6.37;1.90;;;13.70;99.90;;;;;;4941474;29;20236;-95
2023/05/13 11:22:09;;;;;;;6.33;1.93;;;13.70;99.90;;;;;;4957536;29;21217;-96
2023/05/13 11:24:41;;;;;;;5.27;2.00;;;13.60;99.90;;;;;;4960733;29;20271;-95
2023/05/13 11:27:18;;;;;;;3.53;2.00;;;13.60;99.90;;;;;;4961417;28;20229;-96
2023/05/13 11:29:54;;;;;;;2.97;1.93;;;13.60;99.90;;;;;;4960069;28;20228;-95
2023/05/13 11:32:55;;;;;;;4.50;2.30;;;13.60;99.90;;;;;;4922652;29;20235;-94
2023/05/13 11:35:27;;;;;;;7.27;2.33;;;13.50;99.90;;;;;;4953665;29;20208;-95
2023/05/13 11:38:02;;;;;;;3.73;2.07;;;13.60;99.90;;;;;;4939374;29;20244;-95
2023/05/13 11:40:37;;;;;;;4.80;2.07;;;13.60;99.90;;;;;;4939096;29;20216;-95
2023/05/13 11:43:10;;;;;;;5.00;1.90;;;13.50;99.90;;;;;;4938594;29;20212;-95
2023/05/13 11:45:41;;;;;;;2.23;2.00;;;13.50;99.90;;;;;;4939308;29;20208;-93
2023/05/13 11:48:25;;;;;;;5.63;2.10;;;13.50;99.90;;;;;;4938512;29;20208;-95
2023/05/13 11:50:59;;;;;;;9.63;2.20;;;13.50;99.90;;;;;;4938374;29;20230;-96
2023/05/13 11:53:33;;;;;;;4.77;2.23;;;13.50;99.90;;;;;;4939208;29;20728;-94
2023/05/13 11:56:11;;;;;;;4.17;2.40;;;13.50;99.90;;;;;;4939707;29;20205;-96
2023/05/13 11:58:43;;;;;;;4.77;2.10;;;13.50;99.90;;;;;;4919277;29;20670;-96
2023/05/13 12:01:16;;;;;;;2.77;1.87;;;13.40;99.90;;;;;;4929395;29;20216;-94
2023/05/13 12:03:48;;;;;;;4.40;2.10;;;13.40;99.90;;;;;;4941589;29;20213;-93
2023/05/13 12:06:20;;;;;;;5.00;2.00;;;13.30;99.90;;;;;;4942631;29;20212;-93
2023/05/13 12:08:54;;;;;;;4.20;2.13;;;13.30;99.90;;;;;;4958930;29;20247;-96
2023/05/13 12:11:26;;;;;;;3.30;1.90;;;13.30;99.90;;;;;;4960503;29;20185;-96
2023/05/13 12:13:58;;;;;;;3.87;2.23;;;13.20;99.90;;;;;;4960186;29;20211;-96
2023/05/13 12:16:29;;;;;;;4.40;2.27;;;13.20;99.90;;;;;;4953681;29;20221;-95
2023/05/13 12:19:07;;;;;;;3.70;2.20;;;13.10;99.90;;;;;;4953346;29;20216;-96
2023/05/13 12:21:40;;;;;;;3.23;1.90;;;13.10;99.90;;;;;;4953749;29;20737;-96
2023/05/13 12:24:24;;;;;;;4.97;2.10;;;13.10;99.90;;;;;;4943406;29;20732;-95
2023/05/13 12:27:07;;;;;;;5.77;1.90;;;13.00;99.90;;;;;;4938868;29;20208;-96
2023/05/13 12:29:44;;;;;;;5.27;2.20;;;13.00;99.90;;;;;;4938140;28;20738;-94
2023/05/13 12:32:19;;;;;;;3.27;2.00;;;12.90;99.90;;;;;;4928932;29;20275;-95
2023/05/13 12:34:51;;;;;;;2.63;1.97;;;12.90;99.90;;;;;;4939126;29;20238;-94
2023/05/13 12:37:26;;;;;;;6.17;2.40;;;12.90;99.90;;;;;;4950744;29;20209;-93
2023/05/13 12:40:16;;;;;;;3.53;2.17;;;12.90;99.90;;;;;;4959529;28;20208;-95
2023/05/13 12:42:49;;;;;;;2.47;2.27;;;12.90;99.90;;;;;;4957312;28;20212;-95
2023/05/13 12:45:21;;;;;;;4.17;2.13;;;12.80;99.90;;;;;;4940333;29;20269;-95
2023/05/13 12:47:54;;;;;;;4.57;2.03;;;12.80;99.90;;;;;;4938485;29;20212;-96
2023/05/13 12:50:25;;;;;;;3.20;2.00;;;12.80;99.90;;;;;;4937572;28;20316;-94
2023/05/13 12:52:59;;;;;;;4.33;1.83;;;12.80;99.90;;;;;;4937362;29;20236;-96
2023/05/13 12:55:35;;;;;;;5.37;2.30;;;12.80;99.90;;;;;;4938750;29;20216;-96
2023/05/13 12:58:09;;;;;;;3.20;2.03;;;12.80;99.90;;;;;;4940956;28;20216;-96
2023/05/13 13:00:46;;;;;;;2.30;2.00;;;12.80;99.90;;;;;;4948501;29;20231;-96
2023/05/13 13:03:18;;;;;;;3.50;2.03;;;12.80;99.90;;;;;;5396470;23;20245;-96
2023/05/13 13:05:54;;;;;;;3.83;1.87;;;12.80;99.90;;;;;;4988086;23;20285;-96
2023/05/13 13:08:27;;;;;;;8.17;2.33;;;12.90;99.90;;;;;;4912536;29;20213;-96
2023/05/13 13:11:03;;;;;;;3.20;1.77;;;12.90;99.90;;;;;;4911418;29;20224;-96
2023/05/13 13:13:34;;;;;;;6.93;2.00;;;12.90;99.90;;;;;;4919090;29;20236;-95
2023/05/13 13:16:10;;;;;;;3.00;1.80;;;12.80;99.90;;;;;;4914187;29;20212;-92
2023/05/13 13:18:41;;;;;;;5.93;2.03;;;12.80;99.90;;;;;;4916951;29;20666;-91